Corsock Weather Station     55 04' N 3 56' W 114 metres amsl

Latest metar: 212120Z AUTO 21001KT 9999 SCT005 BKN102 07/06 Q1032

The metar is decoded below

GroupValueNotes
Date + time2120Z on day 21 of monthAll observations are in Zulu UTC
WindWind direction: 210 degrees at 1 ktWind given is 10 minute mean
AUTOAUTOIndicates METAR generated automatically; CB and TCU not reported.
Visibilitymore than 10 kmVisibility less than 5,000m - mist, less than 1,000m - fog
Cloudscattered clouds at 500 ft, broken clouds at 10200 ftFEW 1-2 ocktas, SCT 2-4 ocktas, BKN 5-7 ocktas, OVC 8 ocktas
Temp/Dewpt07/06Prefix M denotes minus value, values rounded to nearest C degree
QNH1032 hPaSea level pressure corrected to ISA

Use back button to return to main menu